Time;durP1;ratioP1;P1;durP2;ratioP2;P2;SDS_P1;SDS_P2;PMS_P1;PMS_P2;Temp;Humidity;BMP_temperature;BMP_pressure;BME280_temperature;BME280_humidity;BME280_pressure;Samples;Min_cycle;Max_cycle;Signal;HPM_P1;HPM_P2
2022/01/22 00:01:05;;;;;;;16.38;10.73;;;6.30;56.60;;;;;;5064508;28;20025;-79
2022/01/22 00:03:33;;;;;;;15.27;10.10;;;6.30;56.60;;;;;;5059214;28;20032;-79
2022/01/22 00:05:58;;;;;;;17.77;10.35;;;6.30;56.60;;;;;;5057471;28;20037;-79
2022/01/22 00:08:24;;;;;;;17.77;11.43;;;6.30;56.60;;;;;;5057474;28;20469;-79
2022/01/22 00:10:52;;;;;;;14.70;10.27;;;6.20;56.40;;;;;;5057216;28;20044;-78
2022/01/22 00:15:45;;;;;;;18.23;10.85;;;6.20;56.40;;;;;;5058904;28;20060;-78
2022/01/22 00:18:12;;;;;;;16.77;11.02;;;6.20;56.30;;;;;;5057344;28;20110;-78
2022/01/22 00:20:38;;;;;;;15.13;10.25;;;6.20;56.30;;;;;;5057933;28;20123;-78
2022/01/22 00:23:05;;;;;;;12.68;9.50;;;6.20;56.30;;;;;;5056762;28;20487;-77
2022/01/22 00:25:32;;;;;;;12.82;9.15;;;6.20;56.30;;;;;;5057617;28;20402;-77
2022/01/22 00:28:00;;;;;;;14.35;9.75;;;6.20;56.30;;;;;;5056488;28;20043;-79
2022/01/22 00:30:26;;;;;;;13.48;9.55;;;6.20;56.30;;;;;;5057510;28;20464;-79
2022/01/22 00:32:53;;;;;;;16.55;9.23;;;6.20;56.30;;;;;;5037750;28;20040;-78
2022/01/22 00:35:21;;;;;;;13.13;8.90;;;6.20;56.40;;;;;;5057527;28;20506;-79
2022/01/22 00:37:49;;;;;;;12.85;8.77;;;6.20;56.40;;;;;;5045601;28;20071;-79
2022/01/22 00:40:16;;;;;;;14.65;8.50;;;6.20;56.40;;;;;;5056359;28;20024;-79
2022/01/22 00:42:44;;;;;;;12.43;8.30;;;6.20;56.50;;;;;;5043386;28;20375;-76
2022/01/22 00:45:10;;;;;;;12.98;8.40;;;6.20;56.40;;;;;;5035255;28;20509;-79
2022/01/22 00:47:38;;;;;;;11.05;7.68;;;6.20;56.30;;;;;;5055277;28;20391;-78
2022/01/22 00:50:06;;;;;;;10.93;7.43;;;6.20;56.30;;;;;;5057676;28;20073;-77
2022/01/22 00:52:32;;;;;;;10.02;7.40;;;6.20;56.30;;;;;;5056341;28;20441;-78
2022/01/22 00:54:58;;;;;;;11.38;7.90;;;6.20;56.30;;;;;;5037543;28;20032;-78
2022/01/22 00:57:24;;;;;;;11.25;7.75;;;6.20;56.30;;;;;;5041157;28;20037;-78
2022/01/22 00:59:49;;;;;;;13.43;7.82;;;6.20;57.00;;;;;;5064054;28;20398;-80
2022/01/22 01:02:16;;;;;;;15.60;8.18;;;6.20;56.40;;;;;;5066082;28;20056;-79
2022/01/22 01:04:41;;;;;;;11.60;7.68;;;6.20;56.40;;;;;;5064001;28;20028;-79
2022/01/22 01:07:07;;;;;;;12.32;7.57;;;6.20;56.50;;;;;;5055358;28;20028;-78
2022/01/22 01:09:36;;;;;;;13.23;7.55;;;6.20;57.00;;;;;;5054127;28;20090;-78
2022/01/22 01:12:06;;;;;;;11.82;8.25;;;6.20;56.40;;;;;;5056430;28;20128;-78
2022/01/22 01:14:45;;;;;;;10.75;7.82;;;6.20;56.40;;;;;;5054449;28;20036;-78
2022/01/22 01:17:29;;;;;;;10.65;8.05;;;6.20;56.50;;;;;;5055108;28;20617;-79
2022/01/22 01:33:46;;;;;;;13.45;7.85;;;6.20;56.40;;;;;;5056009;28;20811;-78
2022/01/22 01:36:14;;;;;;;;;;;6.10;56.40;;;;;;5055233;28;20111;-79
2022/01/22 01:38:44;;;;;;;13.00;8.68;;;6.10;56.30;;;;;;5054715;28;19913;-79
2022/01/22 01:41:27;;;;;;;11.48;8.18;;;6.10;56.20;;;;;;5054422;28;20033;-79
2022/01/22 01:43:53;;;;;;;10.65;7.53;;;6.10;56.20;;;;;;5042750;28;20036;-79
2022/01/22 01:46:46;;;;;;;11.52;7.40;;;6.10;56.30;;;;;;5055600;28;20593;-78
2022/01/22 01:49:13;;;;;;;11.77;8.45;;;6.10;56.30;;;;;;5043943;28;20467;-78
2022/01/22 01:51:40;;;;;;;12.30;8.02;;;6.10;56.40;;;;;;5056141;28;20032;-79
2022/01/22 01:54:34;;;;;;;10.98;8.23;;;6.10;56.40;;;;;;5055060;28;20032;-78
2022/01/22 01:59:43;;;;;;;14.48;7.78;;;6.10;56.50;;;;;;5054012;28;20029;-78
2022/01/22 02:02:13;;;;;;;11.20;7.68;;;6.10;56.60;;;;;;5053107;28;20400;-79
2022/01/22 02:04:41;;;;;;;11.35;7.97;;;6.10;56.50;;;;;;5043325;28;20041;-78
2022/01/22 02:07:08;;;;;;;13.32;7.93;;;6.10;56.50;;;;;;5061793;28;20642;-79
2022/01/22 02:09:40;;;;;;;12.23;7.90;;;6.10;56.50;;;;;;5057172;28;20036;-78
2022/01/22 02:12:14;;;;;;;12.68;7.80;;;6.10;56.50;;;;;;5054476;28;20032;-79
2022/01/22 02:23:46;;;;;;;13.77;8.25;;;6.10;56.60;;;;;;5070925;28;20078;-78
2022/01/22 02:26:14;;;;;;;11.20;7.07;;;6.10;56.60;;;;;;5055446;28;20128;-78
2022/01/22 02:28:51;;;;;;;12.18;7.50;;;6.10;56.50;;;;;;5055176;28;20076;-79
2022/01/22 02:34:35;;;;;;;9.75;7.32;;;6.10;56.60;;;;;;5043006;28;20039;-79
2022/01/22 02:37:12;;;;;;;13.32;7.70;;;6.10;56.70;;;;;;5054385;28;20020;-78
2022/01/22 02:39:47;;;;;;;11.48;7.63;;;6.10;56.70;;;;;;5054378;28;20067;-78
2022/01/22 02:42:14;;;;;;;10.67;7.20;;;6.10;56.70;;;;;;5057542;28;20034;-78
2022/01/22 02:44:46;;;;;;;9.93;6.72;;;6.00;56.60;;;;;;5037546;28;20474;-78
2022/01/22 02:47:15;;;;;;;10.38;7.05;;;6.10;56.70;;;;;;5041674;28;20040;-78
2022/01/22 02:49:42;;;;;;;10.23;7.85;;;6.10;56.70;;;;;;5055011;28;20036;-78
2022/01/22 02:52:11;;;;;;;12.25;7.38;;;6.10;56.60;;;;;;5054408;28;20040;-78
2022/01/22 02:54:41;;;;;;;11.43;6.68;;;6.10;56.60;;;;;;5054883;28;20070;-78
2022/01/22 02:57:08;;;;;;;11.27;6.38;;;6.10;56.60;;;;;;5054737;28;20033;-78
2022/01/22 02:59:35;;;;;;;11.73;7.50;;;6.10;56.60;;;;;;5053946;28;20029;-78
2022/01/22 03:02:03;;;;;;;12.38;7.72;;;6.10;56.60;;;;;;5054163;28;20151;-78
2022/01/22 03:04:29;;;;;;;12.93;6.97;;;6.10;56.60;;;;;;5047129;28;20044;-78
2022/01/22 03:06:55;;;;;;;9.98;6.82;;;6.10;56.60;;;;;;5046663;28;20093;-79
2022/01/22 03:09:28;;;;;;;11.18;6.85;;;6.10;56.40;;;;;;5047809;28;20566;-79
2022/01/22 03:27:58;;;;;;;11.43;7.28;;;6.00;56.90;;;;;;5040183;28;20036;-80
2022/01/22 03:30:24;;;;;;;9.18;6.60;;;6.00;56.40;;;;;;5009269;28;20067;-78
2022/01/22 03:32:53;;;;;;;13.23;8.23;;;6.10;56.40;;;;;;5026196;28;20427;-77
2022/01/22 03:37:51;;;;;;;10.32;6.97;;;6.00;56.40;;;;;;5039809;28;20048;-79
2022/01/22 03:40:22;;;;;;;10.98;7.80;;;6.00;56.40;;;;;;5021959;28;20174;-79
2022/01/22 03:42:50;;;;;;;8.55;6.90;;;6.00;56.30;;;;;;5040010;28;20136;-79
2022/01/22 03:45:16;;;;;;;11.02;6.63;;;6.00;56.30;;;;;;5039181;28;20032;-78
2022/01/22 03:47:43;;;;;;;9.00;6.72;;;6.00;56.30;;;;;;5024797;28;20171;-78
2022/01/22 03:50:11;;;;;;;8.80;6.93;;;6.10;56.40;;;;;;5039244;28;20460;-78
2022/01/22 03:52:37;;;;;;;8.43;6.15;;;6.00;56.30;;;;;;5057604;28;20040;-79
2022/01/22 03:55:07;;;;;;;11.02;6.75;;;6.00;56.30;;;;;;5054841;28;20067;-78
2022/01/22 03:58:01;;;;;;;8.70;6.50;;;6.00;56.30;;;;;;5052929;28;20032;-78
2022/01/22 04:00:29;;;;;;;10.07;6.70;;;6.10;56.40;;;;;;5038151;28;20091;-79
2022/01/22 04:03:43;;;;;;;11.65;6.80;;;6.00;56.40;;;;;;5052218;28;20084;-77
2022/01/22 04:05:58;;;;;;;8.00;6.18;;;6.00;56.40;;;;;;5040561;28;20045;-79
2022/01/22 04:08:24;;;;;;;16.25;7.07;;;6.00;56.50;;;;;;5050639;28;20041;-79
2022/01/22 04:10:50;;;;;;;8.75;6.22;;;6.00;56.50;;;;;;5062671;28;20048;-77
2022/01/22 04:13:18;;;;;;;10.20;6.40;;;6.00;56.50;;;;;;5046041;28;20036;-78
2022/01/22 04:15:46;;;;;;;10.25;6.38;;;6.00;56.60;;;;;;5043253;28;20124;-79
2022/01/22 04:28:54;;;;;;;11.77;6.63;;;6.00;56.70;;;;;;5054422;28;20459;-79
2022/01/22 04:31:20;;;;;;;9.35;6.57;;;6.00;56.70;;;;;;5035723;28;20029;-79
2022/01/22 04:33:46;;;;;;;9.30;6.03;;;6.00;56.60;;;;;;5037348;28;20419;-78
2022/01/22 04:36:12;;;;;;;9.68;6.22;;;6.00;56.60;;;;;;5058055;28;20033;-78
2022/01/22 04:38:39;;;;;;;9.73;6.53;;;6.00;56.60;;;;;;5057369;28;20042;-78
2022/01/22 04:41:05;;;;;;;11.68;6.35;;;6.00;56.60;;;;;;5055585;28;20032;-78
2022/01/22 04:43:35;;;;;;;9.02;6.07;;;6.00;56.50;;;;;;5057098;28;20048;-78
2022/01/22 04:56:39;;;;;;;9.50;6.57;;;6.00;56.60;;;;;;5054725;28;20131;-78
2022/01/22 04:59:05;;;;;;;10.63;6.65;;;6.00;56.70;;;;;;5054502;28;20432;-78
2022/01/22 05:01:30;;;;;;;9.43;6.38;;;6.00;56.70;;;;;;5055431;28;20427;-78
2022/01/22 05:04:06;;;;;;;8.43;6.68;;;6.00;56.70;;;;;;5056270;28;20036;-78
2022/01/22 05:06:38;;;;;;;8.65;6.53;;;6.00;56.70;;;;;;5056622;28;20454;-78
2022/01/22 05:09:22;;;;;;;8.05;6.28;;;6.00;56.60;;;;;;5044769;28;20390;-78
2022/01/22 05:11:54;;;;;;;10.60;6.38;;;6.00;56.70;;;;;;5040881;28;20032;-78
2022/01/22 05:14:20;;;;;;;7.25;6.15;;;6.00;56.70;;;;;;5040953;28;20059;-80
2022/01/22 05:16:46;;;;;;;10.23;6.50;;;6.00;56.80;;;;;;5061373;28;20041;-79
2022/01/22 05:19:19;;;;;;;9.35;6.53;;;6.00;56.70;;;;;;5060616;28;20033;-79
2022/01/22 05:21:47;;;;;;;9.85;6.80;;;6.00;56.70;;;;;;5060454;28;20028;-78
2022/01/22 05:24:15;;;;;;;8.80;6.43;;;6.00;56.70;;;;;;5057318;28;20032;-78
2022/01/22 05:32:54;;;;;;;8.48;6.28;;;6.00;56.60;;;;;;5034509;28;20039;-79
2022/01/22 05:38:18;;;;;;;11.63;6.50;;;6.00;56.60;;;;;;5016475;28;20160;-80
2022/01/22 05:40:44;;;;;;;8.73;6.35;;;6.00;56.60;;;;;;5033012;28;20495;-79
2022/01/22 05:43:10;;;;;;;9.20;6.70;;;6.00;56.70;;;;;;5009579;28;20037;-80
2022/01/22 05:45:36;;;;;;;12.40;6.82;;;6.00;56.60;;;;;;5017409;28;20458;-79
2022/01/22 05:48:02;;;;;;;8.57;7.15;;;6.00;56.60;;;;;;5034190;28;20045;-79
2022/01/22 05:50:36;;;;;;;7.90;6.20;;;6.00;56.70;;;;;;5017409;28;20048;-78
2022/01/22 05:53:15;;;;;;;10.50;6.53;;;6.00;56.70;;;;;;5026437;28;20036;-79
2022/01/22 06:01:04;;;;;;;9.05;6.10;;;6.00;56.90;;;;;;5033045;28;20586;-78
2022/01/22 06:03:50;;;;;;;8.30;6.28;;;6.00;56.90;;;;;;5032359;28;20168;-78
2022/01/22 06:06:16;;;;;;;8.35;6.32;;;6.00;56.90;;;;;;5041739;28;20123;-79
2022/01/22 06:08:49;;;;;;;12.88;7.35;;;6.00;56.90;;;;;;5053778;28;20055;-78
2022/01/22 06:11:22;;;;;;;9.40;6.43;;;6.00;56.90;;;;;;5054649;28;20040;-79
2022/01/22 06:13:49;;;;;;;9.88;6.55;;;6.00;56.90;;;;;;5027353;28;20068;-79
2022/01/22 06:16:24;;;;;;;8.50;6.20;;;6.00;56.70;;;;;;5052891;28;20044;-79
2022/01/22 06:19:18;;;;;;;9.88;6.72;;;6.00;56.70;;;;;;5059384;28;20672;-80
2022/01/22 06:21:45;;;;;;;10.55;6.80;;;6.00;56.70;;;;;;5070265;28;20055;-79
2022/01/22 06:24:12;;;;;;;8.55;6.40;;;6.00;56.70;;;;;;5045306;28;20561;-80
2022/01/22 06:26:40;;;;;;;10.88;6.93;;;6.00;56.70;;;;;;5053859;28;20556;-80
2022/01/22 06:29:06;;;;;;;9.98;6.47;;;6.00;56.70;;;;;;5054679;28;20029;-79
2022/01/22 06:31:33;;;;;;;7.20;6.20;;;6.00;56.70;;;;;;5054714;28;20214;-79
2022/01/22 06:34:00;;;;;;;10.40;6.65;;;6.00;56.70;;;;;;5054646;28;20391;-80
2022/01/22 06:36:27;;;;;;;11.95;7.22;;;6.00;56.70;;;;;;5053912;28;20052;-79
2022/01/22 06:39:09;;;;;;;8.77;6.82;;;6.00;56.80;;;;;;5053901;28;20029;-79
2022/01/22 06:41:54;;;;;;;11.32;6.95;;;6.00;56.80;;;;;;5055129;28;20082;-79
2022/01/22 06:44:39;;;;;;;8.00;6.55;;;6.00;56.70;;;;;;5054821;28;20039;-80
2022/01/22 06:47:29;;;;;;;10.63;7.00;;;6.00;56.70;;;;;;5038984;28;20040;-78
2022/01/22 06:50:10;;;;;;;11.80;7.80;;;6.00;56.80;;;;;;5038259;28;20041;-78
2022/01/22 06:52:57;;;;;;;13.80;7.75;;;6.00;56.80;;;;;;5057051;28;20127;-80
2022/01/22 06:55:45;;;;;;;11.98;7.05;;;6.00;56.80;;;;;;5048330;28;20430;-79
2022/01/22 06:58:14;;;;;;;11.70;7.45;;;6.00;56.80;;;;;;5047882;28;20506;-79
2022/01/22 07:00:45;;;;;;;12.00;7.78;;;6.00;56.80;;;;;;5039015;28;20029;-78
2022/01/22 07:03:23;;;;;;;10.50;7.43;;;6.00;56.90;;;;;;5038323;28;20033;-79
2022/01/22 07:06:09;;;;;;;11.95;8.13;;;6.00;56.80;;;;;;5040159;28;20136;-79
2022/01/22 07:08:35;;;;;;;10.52;7.97;;;6.00;56.90;;;;;;5056089;28;20071;-80
2022/01/22 07:11:03;;;;;;;10.95;7.63;;;6.10;56.90;;;;;;5040400;28;20042;-79
2022/01/22 07:13:30;;;;;;;12.30;8.13;;;6.00;56.90;;;;;;5039758;28;20087;-80
2022/01/22 07:15:59;;;;;;;12.63;8.40;;;6.00;56.90;;;;;;5040397;28;20099;-80
2022/01/22 07:18:28;;;;;;;14.07;9.25;;;6.00;56.90;;;;;;5015360;28;20077;-79
2022/01/22 07:20:54;;;;;;;13.88;7.82;;;6.00;56.90;;;;;;5057327;28;20404;-80
2022/01/22 07:26:06;;;;;;;12.75;8.98;;;6.00;57.00;;;;;;5068381;28;20268;-80
2022/01/22 07:28:44;;;;;;;11.90;8.40;;;6.10;57.00;;;;;;5039044;28;20504;-79
2022/01/22 07:31:12;;;;;;;14.20;9.27;;;6.10;57.10;;;;;;5041448;28;20028;-79
2022/01/22 07:33:41;;;;;;;11.95;8.77;;;6.00;57.00;;;;;;5041648;28;20031;-79
2022/01/22 07:36:08;;;;;;;12.52;8.73;;;6.10;57.00;;;;;;5040827;28;20083;-79
2022/01/22 07:38:38;;;;;;;13.75;9.23;;;6.00;57.00;;;;;;5055545;28;20119;-78
2022/01/22 07:41:07;;;;;;;13.30;9.70;;;6.10;57.10;;;;;;5041838;28;20040;-77
2022/01/22 07:43:36;;;;;;;12.30;9.10;;;6.10;57.20;;;;;;5041599;28;20054;-78
2022/01/22 07:46:06;;;;;;;14.45;9.23;;;6.10;57.30;;;;;;5056448;28;20028;-79
2022/01/22 07:48:39;;;;;;;13.07;9.38;;;6.10;57.40;;;;;;5044550;28;20044;-79
2022/01/22 07:51:11;;;;;;;12.65;8.95;;;6.10;57.50;;;;;;5047947;28;20044;-79
2022/01/22 07:53:37;;;;;;;16.48;9.70;;;6.10;57.50;;;;;;5058491;28;20029;-79
2022/01/22 07:56:15;;;;;;;12.05;8.70;;;6.10;57.50;;;;;;5055618;28;20075;-79
2022/01/22 07:58:41;;;;;;;16.85;10.57;;;6.10;57.50;;;;;;5043878;28;20036;-79
2022/01/22 08:01:08;;;;;;;12.30;8.88;;;6.10;58.10;;;;;;5056613;28;20029;-77
2022/01/22 08:03:54;;;;;;;16.15;10.30;;;6.10;57.50;;;;;;5057191;28;20028;-79
2022/01/22 08:06:53;;;;;;;15.85;9.77;;;6.10;57.50;;;;;;5046369;28;20040;-78
2022/01/22 08:09:26;;;;;;;17.05;10.48;;;6.10;57.60;;;;;;5057498;28;20064;-79
2022/01/22 08:11:52;;;;;;;16.25;10.30;;;6.10;57.50;;;;;;5059501;28;20529;-79
2022/01/22 08:14:18;;;;;;;15.23;10.27;;;6.10;57.60;;;;;;5044640;28;20052;-80
2022/01/22 08:16:46;;;;;;;15.60;10.38;;;6.10;57.70;;;;;;5057080;28;20068;-79
2022/01/22 08:19:13;;;;;;;18.17;10.82;;;6.10;57.70;;;;;;5058157;28;20585;-79
2022/01/22 08:21:41;;;;;;;16.05;10.30;;;6.10;57.80;;;;;;5030898;28;20081;-81
2022/01/22 08:24:26;;;;;;;17.73;11.57;;;6.20;57.80;;;;;;5059857;28;20048;-81
2022/01/22 08:29:42;;;;;;;14.50;9.88;;;6.10;57.80;;;;;;5071469;28;20053;-81
2022/01/22 08:37:19;;;;;;;13.80;10.25;;;6.20;58.70;;;;;;5046198;28;20036;-81
2022/01/22 08:39:45;;;;;;;15.15;10.25;;;6.20;59.10;;;;;;5056958;28;20719;-82
2022/01/22 08:42:11;;;;;;;14.57;10.88;;;6.20;59.00;;;;;;5051035;28;20123;-81
2022/01/22 08:44:40;;;;;;;20.48;10.90;;;6.20;59.20;;;;;;5035535;28;20032;-80
2022/01/22 08:47:09;;;;;;;16.55;11.00;;;6.20;58.90;;;;;;5056993;28;20775;-80
2022/01/22 08:49:35;;;;;;;14.45;10.43;;;6.20;58.90;;;;;;5056114;28;20052;-81
2022/01/22 08:52:12;;;;;;;16.58;11.35;;;6.20;58.70;;;;;;5051326;28;20033;-80
2022/01/22 08:54:39;;;;;;;17.73;11.02;;;6.20;58.70;;;;;;5057188;28;20037;-81
2022/01/22 08:57:07;;;;;;;16.27;11.50;;;6.20;58.70;;;;;;5033734;28;20049;-80
2022/01/22 08:59:38;;;;;;;17.25;10.63;;;6.30;58.60;;;;;;5055715;28;20076;-81
2022/01/22 09:02:07;;;;;;;15.30;11.50;;;6.20;58.60;;;;;;5048259;28;20424;-81
2022/01/22 09:04:47;;;;;;;16.38;11.07;;;6.20;59.20;;;;;;5041006;28;20044;-79
2022/01/22 09:07:16;;;;;;;16.65;12.05;;;6.30;58.70;;;;;;5056492;28;20465;-80
2022/01/22 09:10:00;;;;;;;17.75;11.88;;;6.30;58.60;;;;;;5056353;28;20028;-81
2022/01/22 09:12:51;;;;;;;18.90;12.50;;;6.30;58.60;;;;;;5033765;28;20033;-80
2022/01/22 09:15:33;;;;;;;19.13;12.98;;;6.30;58.50;;;;;;5016848;28;20140;-80
2022/01/22 09:17:58;;;;;;;16.10;12.13;;;6.30;58.60;;;;;;5008569;28;20106;-79
2022/01/22 09:20:44;;;;;;;19.60;12.77;;;6.30;58.60;;;;;;5017834;28;20037;-80
2022/01/22 09:23:12;;;;;;;19.23;12.98;;;6.30;58.60;;;;;;5034378;28;20495;-81
2022/01/22 09:25:39;;;;;;;21.33;14.25;;;6.30;58.60;;;;;;5017819;28;20060;-83
2022/01/22 09:28:07;;;;;;;20.13;13.73;;;6.30;58.60;;;;;;5018567;28;20151;-82
2022/01/22 09:30:34;;;;;;;19.88;13.77;;;6.30;58.50;;;;;;5035469;28;21472;-80
2022/01/22 09:33:00;;;;;;;21.65;14.32;;;6.30;58.60;;;;;;5034597;28;20025;-82
2022/01/22 09:35:52;;;;;;;22.55;13.82;;;6.30;58.50;;;;;;5032921;28;20021;-82
2022/01/22 09:38:37;;;;;;;22.30;14.00;;;6.40;58.60;;;;;;5032591;28;20043;-83
2022/01/22 09:41:28;;;;;;;17.63;13.10;;;6.40;58.60;;;;;;5027949;28;20067;-83
2022/01/22 09:44:12;;;;;;;21.20;14.02;;;6.40;58.70;;;;;;5017360;28;20044;-82
2022/01/22 09:46:59;;;;;;;20.65;13.60;;;6.40;58.80;;;;;;4974124;28;20160;-82
2022/01/22 09:49:47;;;;;;;22.25;14.18;;;6.40;58.90;;;;;;4959933;28;20588;-83
2022/01/22 09:52:34;;;;;;;19.83;14.25;;;6.40;59.00;;;;;;4973133;28;20046;-81
2022/01/22 09:55:19;;;;;;;23.45;14.07;;;6.40;59.30;;;;;;4957265;28;20061;-82
2022/01/22 09:58:03;;;;;;;21.40;13.98;;;6.40;59.30;;;;;;4973297;28;20085;-83
2022/01/22 10:00:52;;;;;;;21.60;13.57;;;6.40;59.40;;;;;;4956992;28;20026;-83
2022/01/22 10:03:39;;;;;;;21.17;13.88;;;6.40;59.40;;;;;;4955049;28;20039;-83
2022/01/22 10:06:29;;;;;;;25.10;14.77;;;6.40;59.40;;;;;;4955155;28;20039;-83
2022/01/22 10:09:24;;;;;;;20.63;13.57;;;6.40;59.40;;;;;;4972128;28;20097;-83
2022/01/22 10:12:19;;;;;;;22.55;14.45;;;6.40;59.50;;;;;;4971551;28;20150;-86
2022/01/22 10:15:18;;;;;;;23.45;13.70;;;6.40;59.40;;;;;;4968576;28;21493;-85
2022/01/22 10:17:55;;;;;;;19.70;12.70;;;6.40;59.70;;;;;;4971520;28;20078;-86
2022/01/22 10:20:21;;;;;;;22.70;13.35;;;6.50;60.00;;;;;;4971621;28;20089;-85
2022/01/22 10:22:49;;;;;;;19.50;12.68;;;6.50;60.60;;;;;;4969865;28;20078;-85
2022/01/22 10:25:25;;;;;;;17.45;11.65;;;6.50;60.80;;;;;;5049367;28;20048;-81
2022/01/22 10:28:05;;;;;;;18.52;12.10;;;6.50;61.80;;;;;;5050494;28;20040;-83
2022/01/22 10:30:38;;;;;;;15.27;10.95;;;6.60;61.50;;;;;;5055377;28;20040;-82
2022/01/22 10:33:33;;;;;;;21.70;12.35;;;6.60;61.70;;;;;;5058444;28;20025;-82
2022/01/22 10:36:21;;;;;;;16.55;11.82;;;6.60;61.80;;;;;;5054387;28;20048;-81
2022/01/22 10:39:25;;;;;;;17.60;11.82;;;6.60;62.00;;;;;;5055672;28;20040;-84
2022/01/22 10:41:52;;;;;;;21.15;12.57;;;6.70;62.10;;;;;;5039260;28;20027;-82
2022/01/22 10:44:35;;;;;;;19.75;12.18;;;6.70;62.20;;;;;;5047340;28;20032;-83
2022/01/22 10:47:04;;;;;;;21.75;12.85;;;6.70;62.20;;;;;;5054540;28;20032;-84
2022/01/22 10:49:30;;;;;;;21.10;12.77;;;6.80;62.20;;;;;;5050399;28;20037;-83
2022/01/22 10:51:59;;;;;;;18.63;12.68;;;6.80;62.30;;;;;;5052159;28;20029;-81
2022/01/22 10:54:36;;;;;;;20.13;11.98;;;6.80;62.30;;;;;;5054217;28;20040;-82
2022/01/22 10:57:19;;;;;;;20.00;12.75;;;6.80;62.40;;;;;;5056980;28;20452;-84
2022/01/22 10:59:56;;;;;;;23.10;13.57;;;6.90;62.50;;;;;;5054700;28;20033;-85
2022/01/22 11:02:40;;;;;;;20.65;14.05;;;6.90;62.60;;;;;;5053113;28;20099;-82
2022/01/22 11:05:07;;;;;;;19.55;13.00;;;6.90;62.80;;;;;;5053622;28;20029;-84
2022/01/22 11:07:33;;;;;;;18.77;12.43;;;6.90;62.90;;;;;;5020992;28;20040;-82
2022/01/22 11:10:00;;;;;;;21.77;12.98;;;6.90;62.90;;;;;;5040096;28;20040;-81
2022/01/22 11:12:26;;;;;;;21.50;13.85;;;7.00;63.10;;;;;;5038175;28;20037;-82
2022/01/22 11:14:52;;;;;;;22.13;13.80;;;7.00;63.10;;;;;;5051516;28;20406;-83
2022/01/22 11:17:19;;;;;;;20.75;13.60;;;7.00;63.10;;;;;;5033546;28;20033;-81
2022/01/22 11:19:48;;;;;;;22.75;13.75;;;7.00;63.20;;;;;;5049740;28;20049;-82
2022/01/22 11:22:16;;;;;;;19.45;13.18;;;7.10;63.30;;;;;;5053518;28;20037;-82
2022/01/22 11:24:45;;;;;;;22.38;14.07;;;7.10;63.30;;;;;;5054644;28;20033;-82
2022/01/22 11:27:17;;;;;;;21.38;13.43;;;7.10;63.30;;;;;;5053925;28;20058;-82
2022/01/22 11:29:51;;;;;;;20.60;13.05;;;7.10;63.40;;;;;;5035903;28;20039;-83
2022/01/22 11:32:20;;;;;;;23.10;13.70;;;7.10;63.40;;;;;;5037407;28;20055;-83
2022/01/22 11:34:49;;;;;;;18.95;11.98;;;7.10;63.40;;;;;;5062333;28;20041;-83
2022/01/22 11:37:29;;;;;;;22.33;13.27;;;7.20;63.50;;;;;;5059378;28;20414;-81
2022/01/22 11:40:20;;;;;;;20.42;12.70;;;7.20;63.40;;;;;;5047489;28;20032;-81
2022/01/22 11:43:08;;;;;;;22.17;12.73;;;7.20;63.40;;;;;;5041003;28;20048;-82
2022/01/22 11:45:41;;;;;;;20.25;12.88;;;7.20;63.50;;;;;;5044550;28;20036;-84
2022/01/22 11:48:15;;;;;;;19.35;12.45;;;7.20;63.40;;;;;;5059598;28;20093;-86
2022/01/22 11:50:42;;;;;;;19.10;12.48;;;7.20;63.40;;;;;;5058625;28;20036;-87
2022/01/22 11:53:37;;;;;;;19.80;12.07;;;7.30;63.30;;;;;;5047374;28;20396;-87
2022/01/22 11:56:13;;;;;;;23.58;13.80;;;7.30;63.30;;;;;;5057200;28;20403;-87
2022/01/22 11:58:57;;;;;;;;;;;7.30;64.00;;;;;;5058601;28;20037;-85
2022/01/22 12:01:38;;;;;;;15.98;10.05;;;7.40;68.20;;;;;;5031751;28;19916;-86
2022/01/22 12:04:05;;;;;;;16.17;8.93;;;7.40;68.80;;;;;;5046285;28;20126;-87
2022/01/22 12:06:31;;;;;;;13.00;9.23;;;7.50;67.90;;;;;;5059585;28;20029;-88
2022/01/22 12:09:15;;;;;;;23.63;10.48;;;7.50;66.70;;;;;;5038673;28;20110;-88
2022/01/22 12:14:51;;;;;;;17.02;10.55;;;7.60;65.60;;;;;;5046991;28;20025;-89
2022/01/22 12:17:25;;;;;;;17.75;11.00;;;7.50;64.90;;;;;;5184190;22;20088;-88
2022/01/22 12:20:28;;;;;;;18.23;10.90;;;7.60;64.80;;;;;;5107908;23;20288;-89
2022/01/22 12:22:38;;;;;;;15.60;10.82;;;7.60;64.70;;;;;;5235588;22;20033;-90
2022/01/22 12:25:24;;;;;;;18.77;12.55;;;7.60;64.50;;;;;;5066237;28;20028;-89
2022/01/22 12:27:54;;;;;;;21.08;11.95;;;7.60;64.30;;;;;;5039431;28;20396;-92
2022/01/22 12:30:43;;;;;;;17.77;11.90;;;7.60;64.10;;;;;;5060035;28;20124;-93
2022/01/22 12:33:13;;;;;;;15.80;11.60;;;7.60;64.00;;;;;;5049632;28;20400;-93
2022/01/22 12:35:42;;;;;;;15.68;11.73;;;7.60;64.00;;;;;;5061397;28;20040;-87
2022/01/22 12:38:18;;;;;;;16.70;13.05;;;7.60;64.10;;;;;;5077985;28;20008;-84
2022/01/22 12:40:46;;;;;;;20.05;13.55;;;7.70;64.20;;;;;;5080955;28;20070;-86
2022/01/22 12:43:19;;;;;;;19.85;13.15;;;7.70;64.40;;;;;;5072022;28;20043;-89
2022/01/22 12:45:53;;;;;;;17.30;12.25;;;7.70;64.50;;;;;;5046628;28;20029;-87
2022/01/22 12:48:20;;;;;;;18.60;12.30;;;7.70;65.10;;;;;;5053871;28;20045;-85
2022/01/22 12:50:46;;;;;;;17.15;11.85;;;7.70;64.60;;;;;;5038130;28;20539;-87
2022/01/22 12:53:14;;;;;;;17.98;12.23;;;7.70;64.60;;;;;;5054458;28;20391;-87
2022/01/22 12:58:25;;;;;;;15.10;10.77;;;7.70;64.60;;;;;;5061334;28;20040;-89
2022/01/22 13:01:06;;;;;;;16.65;11.05;;;7.70;64.40;;;;;;5061305;28;20348;-89
2022/01/22 13:03:35;;;;;;;19.52;11.45;;;7.70;64.20;;;;;;5063374;28;20082;-91
2022/01/22 13:06:08;;;;;;;15.07;10.82;;;7.70;63.60;;;;;;5066475;28;20039;-86
2022/01/22 13:08:57;;;;;;;19.40;11.40;;;7.70;63.00;;;;;;5029586;28;20041;-94
2022/01/22 13:11:33;;;;;;;17.85;11.05;;;7.70;62.30;;;;;;5042206;28;20435;-93
2022/01/22 13:14:00;;;;;;;17.98;12.43;;;7.60;61.90;;;;;;5040264;28;20045;-91
2022/01/22 13:16:27;;;;;;;17.45;11.55;;;7.60;61.50;;;;;;5010089;28;20033;-94
2022/01/22 13:18:57;;;;;;;15.35;11.07;;;7.60;61.10;;;;;;5035971;28;20037;-88
2022/01/22 13:21:27;;;;;;;16.70;12.35;;;7.60;60.80;;;;;;5033858;28;20150;-93
2022/01/22 13:24:08;;;;;;;17.35;11.60;;;7.60;60.50;;;;;;5037354;28;20057;-91
2022/01/22 13:27:04;;;;;;;17.23;12.23;;;7.50;60.30;;;;;;5020841;28;20048;-94
2022/01/22 13:29:31;;;;;;;19.15;12.05;;;7.50;60.10;;;;;;5021588;28;20033;-94
2022/01/22 13:32:15;;;;;;;17.33;12.00;;;7.50;59.90;;;;;;5003273;28;20032;-91
2022/01/22 13:49:31;;;;;;;17.35;12.05;;;7.40;59.20;;;;;;5011195;28;20469;-93
2022/01/22 13:52:06;;;;;;;17.50;11.65;;;7.30;58.90;;;;;;5012620;28;20049;-93
2022/01/22 13:54:40;;;;;;;14.88;10.63;;;7.30;58.80;;;;;;5016636;28;20033;-90
2022/01/22 13:57:10;;;;;;;16.02;11.50;;;7.30;58.80;;;;;;4996480;28;20038;-89
2022/01/22 13:59:41;;;;;;;18.08;11.88;;;7.30;58.70;;;;;;4995166;28;20120;-90
2022/01/22 14:02:17;;;;;;;16.98;10.95;;;7.20;58.50;;;;;;4987828;28;20145;-91
2022/01/22 14:05:01;;;;;;;;;;;7.20;58.50;;;;;;5016911;28;20029;-93
2022/01/22 14:07:40;;;;;;;17.45;10.45;;;7.20;58.30;;;;;;4978645;28;20352;-89
2022/01/22 14:10:37;;;;;;;19.02;9.95;;;7.20;59.60;;;;;;4986383;28;20017;-91
2022/01/22 14:13:09;;;;;;;41.70;10.65;;;7.30;62.10;;;;;;4986176;28;20048;-92
2022/01/22 14:15:44;;;;;;;17.58;10.23;;;7.30;63.10;;;;;;5000886;28;20520;-85
2022/01/22 14:18:19;;;;;;;15.73;10.88;;;7.30;63.00;;;;;;5021997;28;20041;-88
2022/01/22 14:20:45;;;;;;;16.30;10.85;;;7.30;62.30;;;;;;5000308;28;20549;-82
2022/01/22 14:23:10;;;;;;;19.63;11.18;;;7.30;61.50;;;;;;5014614;28;20029;-82
2022/01/22 14:26:11;;;;;;;19.90;11.35;;;7.30;61.40;;;;;;5014075;28;20026;-81
2022/01/22 14:28:56;;;;;;;17.52;11.43;;;7.30;62.50;;;;;;5011569;28;20500;-83
2022/01/22 14:31:39;;;;;;;16.40;12.00;;;7.30;63.60;;;;;;5013258;28;20482;-82
2022/01/22 14:34:28;;;;;;;20.08;11.20;;;7.40;64.00;;;;;;5003959;28;20091;-83
2022/01/22 14:36:55;;;;;;;19.83;11.88;;;7.40;64.10;;;;;;5013920;28;20037;-82
2022/01/22 14:45:08;;;;;;;19.33;11.90;;;7.40;64.50;;;;;;5018026;28;20082;-82
2022/01/22 14:47:35;;;;;;;19.05;12.10;;;7.40;64.70;;;;;;5018609;28;20084;-82
2022/01/22 14:50:08;;;;;;;17.75;12.10;;;7.40;64.50;;;;;;5017205;28;20065;-82
2022/01/22 14:52:34;;;;;;;18.15;11.85;;;7.40;64.60;;;;;;5014183;28;20037;-82
2022/01/22 14:55:07;;;;;;;20.73;12.70;;;7.40;64.40;;;;;;5012282;28;20033;-81
2022/01/22 14:57:35;;;;;;;17.80;12.52;;;7.40;64.50;;;;;;5013251;28;20056;-83
2022/01/22 15:00:06;;;;;;;18.95;12.50;;;7.40;64.60;;;;;;5013822;28;20120;-82
2022/01/22 15:02:37;;;;;;;18.27;12.75;;;7.50;64.60;;;;;;4980509;28;20103;-83
2022/01/22 15:05:08;;;;;;;15.75;11.27;;;7.50;64.60;;;;;;4986569;28;20145;-82
2022/01/22 15:07:35;;;;;;;18.38;11.90;;;7.50;64.50;;;;;;5014785;28;20033;-82
2022/01/22 15:10:01;;;;;;;18.75;11.88;;;7.50;64.60;;;;;;5014066;28;20033;-80
2022/01/22 15:12:27;;;;;;;20.60;12.38;;;7.50;64.60;;;;;;5018402;28;20045;-82
2022/01/22 15:14:53;;;;;;;16.42;11.13;;;7.50;64.50;;;;;;5000372;28;20029;-82